Flight Track Log - Related Links

Times and Time Zones

All times are in EDT time to prevent confusion due to time zone crossing. See the N31KE flight status page for this flight to view local times or setup timezone preferences in your user account.

Time Position Orientation Groundspeed Altitude Reporting Facility
EDT Latitude Longitude Course Direction KTS MPH feet Rate Location/Type
Sun 01:47:14 PM 39.5808 -79.9897 225° Southwest 86 99 3,900  Level Cleveland Center
Sun 01:48:16 PM 39.5650 -80.0094 224° Southwest 83 96 4,300 435 Climbing Cleveland Center
Sun 01:49:18 PM 39.5439 -80.0336 221° Southwest 83 96 4,800 387 Climbing Cleveland Center
Sun 01:50:00 PM 39.4471 -80.1790 226° Southwest  Level FlightAware Approximate
Sun 01:50:20 PM 39.5275 -80.0556 226° Southwest 84 97 5,100  Level Cleveland Center
Sun 01:51:00 PM 39.4271 -80.2054 226° Southwest  Level FlightAware Approximate
Sun 01:51:22 PM 39.5094 -80.0769 222° Southwest 86 99 5,600  Level Cleveland Center
Sun 01:52:24 PM 39.4906 -80.0994 223° Southwest 89 102 6,100 432 Climbing Cleveland Center
Sun 01:53:27 PM 39.4728 -80.1211 223° Southwest 89 102 6,500 480 Climbing Cleveland Center
Sun 01:54:29 PM 39.4544 -80.1475 228° Southwest 92 106 7,100 -48 Climbing Cleveland Center
Sun 01:55:31 PM 39.4267 -80.1847 226° Southwest 105 121 6,400 -242 Descending Cleveland Center
Sun 01:56:33 PM 39.4053 -80.2106 223° Southwest 108 124 6,600 48 Climbing Cleveland Center
Sun 01:57:35 PM 39.3822 -80.2353 220° Southwest 109 125 6,500 -48 Descending Cleveland Center
Sun 01:58:37 PM 39.3603 -80.2628 224° Southwest 109 125 6,500  Level Cleveland Center
Sun 01:59:39 PM 39.3397 -80.2933 229° Southwest 109 125 6,500 48 Level Cleveland Center
Sun 02:00:41 PM 39.3192 -80.3233 228° Southwest 111 128 6,600  Climbing Cleveland Center
Sun 02:01:43 PM 39.2931 -80.3583 226° Southwest 112 129 6,500 -48 Descending Cleveland Center
Sun 02:02:45 PM 39.2719 -80.3872 227° Southwest 111 128 6,500  Level Cleveland Center
Sun 02:03:47 PM 39.2522 -80.4136 226° Southwest 108 124 6,500 48 Level Cleveland Center
Sun 02:04:49 PM 39.2328 -80.4392 226° Southwest 104 120 6,600 48 Climbing Cleveland Center
Sun 02:05:51 PM 39.2128 -80.4669 227° Southwest 104 120 6,600  Level Cleveland Center
Sun 02:06:53 PM 39.1917 -80.4964 227° Southwest 107 123 6,600 -48 Level Cleveland Center
Sun 02:07:55 PM 39.1658 -80.5322 227° Southwest 111 128 6,500 -48 Descending Cleveland Center
Sun 02:08:58 PM 39.1442 -80.5611 226° Southwest 112 129 6,500  Level Cleveland Center
Sun 02:10:00 PM 39.1219 -80.5914 227° Southwest 114 131 6,500 48 Level Cleveland Center
Sun 02:11:02 PM 39.1014 -80.6181 225° Southwest 111 128 6,600 48 Climbing Cleveland Center
Sun 02:12:04 PM 39.0814 -80.6447 226° Southwest 107 123 6,600 -48 Level Cleveland Center
Sun 02:13:06 PM 39.0592 -80.6739 226° Southwest 109 125 6,500 -48 Descending Cleveland Center
Sun 02:14:08 PM 39.0333 -80.7100 227° Southwest 112 129 6,500  Level Cleveland Center
Sun 02:15:10 PM 39.0119 -80.7392 227° Southwest 112 129 6,500  Level Cleveland Center
Sun 02:16:12 PM 38.9892 -80.7694 226° Southwest 114 131 6,500  Level Cleveland Center
Sun 02:17:14 PM 38.9681 -80.7992 228° Southwest 114 131 6,500  Level Cleveland Center
Sun 02:18:16 PM 38.9458 -80.8283 226° Southwest 114 131 6,500 -48 Level Cleveland Center
Sun 02:19:18 PM 38.9236 -80.8578 226° Southwest 115 132 6,400  Descending Cleveland Center
Sun 02:20:41 PM 38.8903 -80.9036 227° Southwest 113 130 6,500 83 Climbing Indianapolis Center
Sun 02:21:43 PM 38.8681 -80.9311 224° Southwest 111 128 6,600  Climbing Indianapolis Center
Sun 02:22:46 PM 38.8469 -80.9600 227° Southwest 111 128 6,500 -96 Descending Indianapolis Center
Sun 02:23:48 PM 38.8256 -80.9894 227° Southwest 112 129 6,400 -435 Descending Indianapolis Center
Sun 02:24:50 PM 38.7964 -81.0325 229° Southwest 124 143 5,600 -532 Descending Indianapolis Center
Sun 02:25:52 PM 38.7714 -81.0636 224° Southwest 126 145 5,300 -194 Descending Indianapolis Center
Sun 02:26:54 PM 38.7486 -81.0944 227° Southwest 123 142 5,200 -48 Descending Indianapolis Center
Sun 02:27:56 PM 38.7294 -81.1278 234° Southwest 119 137 5,200  Level Indianapolis Center
Sun 02:28:58 PM 38.7111 -81.1614 235° Southwest 116 133 5,200 -48 Level Indianapolis Center
Sun 02:30:00 PM 38.6864 -81.1892 221° Southwest 116 133 5,100 -145 Descending Indianapolis Center
Sun 02:31:02 PM 38.6597 -81.2133 215° Southwest 116 133 4,900 -290 Descending Indianapolis Center
Sun 02:32:04 PM 38.6294 -81.2500 223° Southwest 121 139 4,500 -387 Descending Indianapolis Center
Sun 02:33:06 PM 38.6047 -81.2800 223° Southwest 122 140 4,100 -339 Descending Indianapolis Center
Sun 02:34:08 PM 38.5814 -81.3100 225° Southwest 120 138 3,800 -435 Descending Indianapolis Center
Sun 02:35:10 PM 38.5581 -81.3403 225° Southwest 119 137 3,200 -387 Descending Indianapolis Center
Sun 02:36:12 PM 38.5350 -81.3708 226° Southwest 119 137 3,000  Descending Indianapolis Center
Sun 02:37:14 PM 38.5133 -81.4003 227° Southwest 116 133 3,200 48 Climbing Indianapolis Center
Sun 02:38:16 PM 38.4928 -81.4319 230° Southwest 115 132 3,100  Descending Indianapolis Center
Sun 02:39:18 PM 38.4719 -81.4608 227° Southwest 113 130 3,200 -145 Climbing Indianapolis Center
Sun 02:40:20 PM 38.4506 -81.4925 229° Southwest 104 120 2,800 -387 Descending Indianapolis Center
Sun 02:41:22 PM 38.4319 -81.5169 226° Southwest 99 114 2,400 -336 Descending Indianapolis Center
Sun 02:42:25 PM 38.4147 -81.5400 226° Southwest 95 109 2,100 -384 Descending Indianapolis Center
Sun 02:43:27 PM 38.4000 -81.5614 229° Southwest 87 100 1,600 -290 Descending Indianapolis Center
Sun 02:44:29 PM 38.3839 -81.5839 228° Southwest 86 99 1,500 -97 Descending Indianapolis Center

Login

Don't have an account? Register now (free) for customized features, flight alerts, and more!